Terminal Aerodrome Forecast
Issued by NWS

Home | Current Version | Previous Version | Text Only | Print | Product List | Glossary On
Versions: 1 2 3 4 5 6 7 8 9 10 11 12 13
000
FTUS44 KMAF 030520
TAFCNM
TAF
KCNM 030520Z 0306/0406 16007KT P6SM SCT150
     FM031900 15011G19KT P6SM SCT200
     FM040200 17008KT P6SM SCT200=

USA.gov is the U.S. government's official web portal to all federal, state and local government web resources and services.